Weather
Algoa Flight CentreBookingsEnt 1064(rendered 2016-08-24 21:35:52) Member: Guest [54.162.126.136- private]
Go back one day  Today  Go forward one day
00h00-24h00  00h00-12h00  12h00-24h00  06h00-22h00  08h00-18h00   Bookingsheet Key 

Sunrise: 06:44B

Full view Bookings for Wednesday, 24th August 2016

New SACAA Exam Regulations have come into effect: 7 days waiting period across the board for exams failed - AIC Series C 005/2016 23 June 2016

Sunset: 17:54B

 06h0007h0008h0009h0010h0011h0012h0013h0014h0015h0016h0017h0018h0019h0020h0021h00

ZU-WCG

Airplane company NTCA

ZS-KEO

Cessna C152 Single Engine

ZS-MXS

Cessna C152 Single Engine

ZS-PKO

Cessna C152 Single Engine

ZS-PKS

Cessna C152 Single Engine

ZS-KSF

Cessna C172 Single Engine 4 seater

ZS-MBP

Cessna C172 Single Engine 4 seater

Maintenance

Maintenance

ZS-KND

Cessna C72R Complex Single Engine

Elite S812 SE

Elite Simulators FNPTII

Maintenance

Elite S812 ME

Elite Simulators FNPT II

ZS-IHX

Beechcraft Multi Engine Piston

Maintenance

ZS-POI

GippsAero G8 Airvan

FAPE METAR 241900Z 23004KT CAVOK 13/09 Q1024 NOSIG
FAGG METAR 241900Z AUTO 30004KT CAVOK 10/09 Q1024

Mike Helliwell

CEO

Mike Thompson

Chief Flight Instructor

Russell Abrey

Flight Instructor Gr II

Clayton Staples

Flight Instructor Gr II

Russell Phillips

Flight Instructor Gr II

Dave Anderson

Flight Instructor Gr II

Eric van der Merwe

Flight Instructor GrII

Abraham Muhumuza

Ground School

Stephan Smit

MADIBA SIM STUDENTS ONLY

Sophia Sudak

TEFL ENGLISH TEACHER

George Stewart

DFE

Tony van Vliet

DFE

FAPE TAF 241600Z 2418/2518 VRB03KT 9999 FEW010    TEMPO 2420/2503 3000 BR BKN008    BECMG 2509/2511 21015KT    TX20/2512ZTN07/2504Z
FAGG TAF 241600Z 2418/2518 VRB03KT 9999 SCT010    TEMPO 2419/2506 BKN006    PROB40 TEMPO 2419/2506 1500 BCFG BKN003    FM250700 23006KT 9999 FEW020    FM251200 25008KT 9999 SCT015    TX18/2512ZTN06/2505Z

IF Slots

IF Slots

Down Lecture Roo

Downstairs

Exam Station 1

CAA Exams

Exam Station 2

CAA Exams

Exam Station 3

CAA Exams

Upstairs Lecture

Upstairs

Braai Area

Outdoor Braai

Gremlins Grotto

Pub

Clubhouse

Functions

Logger

GPS Logger

 06h0007h0008h0009h0010h0011h0012h0013h0014h0015h0016h0017h0018h0019h0020h0021h00

index.php last modified on Wed 13 Jun 2012 7:48 PM